»·PEaware :: WAT3306 KSBA-KLAS

WAT3306 :: KSBA-KLAS

FLIGHT INFORMATION

Flight Status: Arrived
Operator:
Walker Air Transport
More flights by this operator :: More flights under this callsign
Pilot: Ethan S. (29221)
Aircraft: DASSAULT AVIATION FALCON 50
(FA50)
More flights by this aircraft type
Origin: KSBA Santa Barbara Mun
United States
Destination: KLAS McCarran Intl
United States
More flights between these airports :: More routes between these airports
Route: MISHN3 NNAVY MISEN KEPEC6
File this flight plan on PilotEdge
Remarks:
Altitude:
(Current/Filed)
31,000ft
Speed:
(Current/Filed)
480kts
Departed: 19-Feb-21 08:37 PM
Arrived: 19-Feb-21 09:27 PM
Distance/Time
Traveled:
249nm/0:50
Distance/Time
To Go:
Arrived

Flight Plot

Page will automatically refresh every two minutes.

Flight plan parsing failed; only flown route is shown


Map Options




Map Legend


Flown Route
Filed Route
Departure Airport
Arrival Airport
Navaid (VOR, NDB)
Fix

Horizontal Profiles

Position Reports

Time Latitude Longitude Heading Altitude Ground
Speed
19-Feb-21 20:10 34.422618 -119.835574 340 17ft 0kts
19-Feb-21 20:11 34.422618 -119.835574 340 17ft 0kts
19-Feb-21 20:12 34.422618 -119.835574 340 17ft 0kts
19-Feb-21 20:13 34.422618 -119.835574 340 17ft 0kts
19-Feb-21 20:14 34.422618 -119.835574 340 17ft 0kts
19-Feb-21 20:15 34.422618 -119.835574 340 17ft 0kts
19-Feb-21 20:16 34.422618 -119.835574 340 17ft 0kts
19-Feb-21 20:17 34.422618 -119.835574 340 17ft 0kts
19-Feb-21 20:18 34.422618 -119.835574 340 17ft 0kts
19-Feb-21 20:19 34.422618 -119.835574 340 17ft 0kts
19-Feb-21 20:20 34.422618 -119.835574 340 17ft 0kts
19-Feb-21 20:21 34.422618 -119.835574 340 17ft 0kts
19-Feb-21 20:22 34.422439 -119.835499 340 18ft 0kts
19-Feb-21 20:23 34.422439 -119.835499 340 18ft 0kts
19-Feb-21 20:24 34.422439 -119.835499 340 18ft 0kts
19-Feb-21 20:25 34.422439 -119.835499 340 18ft 0kts
19-Feb-21 20:26 34.422439 -119.835499 340 18ft 0kts
19-Feb-21 20:27 34.422439 -119.835499 340 18ft 0kts
19-Feb-21 20:28 34.422439 -119.835499 340 18ft 0kts
19-Feb-21 20:29 34.422646 -119.836416 278 17ft 0kts
19-Feb-21 20:30 34.423531 -119.837382 348 16ft 9kts
19-Feb-21 20:31 34.426491 -119.838274 356 16ft 11kts
19-Feb-21 20:32 34.426763 -119.835023 87 15ft 6kts
19-Feb-21 20:33 34.427055 -119.834626 4 15ft 0kts
19-Feb-21 20:34 34.427154 -119.834625 356 15ft 3kts
19-Feb-21 20:35 34.427899 -119.835420 267 17ft 0kts
19-Feb-21 20:36 34.427403 -119.863871 269 1176ft 185kts
19-Feb-21 20:37 34.398372 -119.930415 193 3001ft 265kts
19-Feb-21 20:38 34.327308 -119.914734 136 6941ft 287kts
19-Feb-21 20:39 34.268231 -119.843290 136 11501ft 317kts
19-Feb-21 20:40 34.207736 -119.752894 110 13861ft 385kts
19-Feb-21 20:41 34.196723 -119.619898 91 16501ft 409kts
19-Feb-21 20:42 34.197636 -119.479898 85 18849ft 428kts
19-Feb-21 20:43 34.203453 -119.333007 86 22184ft 450kts
19-Feb-21 20:44 34.209380 -119.178107 86 24802ft 471kts
19-Feb-21 20:45 34.227067 -119.021881 74 27612ft 472kts
19-Feb-21 20:46 34.257364 -118.870035 74 30167ft 472kts
19-Feb-21 20:47 34.288267 -118.714553 74 31191ft 505kts
19-Feb-21 20:48 34.321671 -118.545027 75 31200ft 541kts
19-Feb-21 20:49 34.356368 -118.367432 75 31205ft 544kts
19-Feb-21 20:50 34.390646 -118.190623 75 31213ft 539kts
19-Feb-21 20:51 34.429060 -118.016490 67 31225ft 535kts
19-Feb-21 20:52 34.489577 -117.853259 62 31215ft 533kts
19-Feb-21 20:53 34.552681 -117.690406 62 31217ft 532kts
19-Feb-21 20:54 34.615264 -117.528199 62 31206ft 533kts
19-Feb-21 20:55 34.677898 -117.365048 62 31210ft 533kts
19-Feb-21 20:56 34.740378 -117.201472 62 31198ft 532kts
19-Feb-21 20:57 34.802442 -117.038185 62 31202ft 532kts
19-Feb-21 20:58 34.864463 -116.874195 62 31203ft 536kts
19-Feb-21 21:00 34.930835 -116.711523 55 30559ft 525kts
19-Feb-21 21:01 35.008791 -116.569830 51 27390ft 489kts
19-Feb-21 21:02 35.083343 -116.437515 49 24298ft 458kts
19-Feb-21 21:03 35.159252 -116.332523 40 23967ft 385kts
19-Feb-21 21:04 35.230031 -116.243567 40 22225ft 347kts
19-Feb-21 21:05 35.296936 -116.159540 40 20445ft 323kts
19-Feb-21 21:06 35.359890 -116.080270 40 18673ft 306kts
19-Feb-21 21:07 35.420069 -116.004296 41 16904ft 293kts
19-Feb-21 21:08 35.478378 -115.930509 42 15126ft 283kts
19-Feb-21 21:09 35.534784 -115.858967 42 13348ft 274kts
19-Feb-21 21:10 35.586891 -115.792755 42 13022ft 267kts
19-Feb-21 21:11 35.641701 -115.722963 43 13020ft 280kts
19-Feb-21 21:12 35.698176 -115.650853 43 13020ft 287kts
19-Feb-21 21:13 35.756551 -115.583559 23 13021ft 286kts
19-Feb-21 21:14 35.836133 -115.570996 358 13019ft 282kts
19-Feb-21 21:15 35.915456 -115.566672 359 13012ft 283kts
19-Feb-21 21:16 35.985371 -115.517819 60 13006ft 299kts
19-Feb-21 21:17 36.017001 -115.419729 66 12999ft 300kts
19-Feb-21 21:18 36.027446 -115.318618 95 12618ft 301kts
19-Feb-21 21:19 36.019701 -115.217592 95 10592ft 286kts
19-Feb-21 21:20 36.013048 -115.121491 96 8591ft 276kts
19-Feb-21 21:21 36.061936 -115.060115 20 6600ft 269kts
19-Feb-21 21:22 36.127780 -115.028996 2 5478ft 227kts
19-Feb-21 21:22 36.161013 -115.076146 294 5250ft 223kts
19-Feb-21 21:23 36.157445 -115.133976 188 3761ft 187kts
19-Feb-21 21:25 36.110193 -115.150392 204 2397ft 129kts
19-Feb-21 21:25 36.087774 -115.163301 204 2134ft 59kts
19-Feb-21 21:26 36.083723 -115.166753 233 2155ft 0kts
19-Feb-21 21:27 36.083104 -115.167401 210 2159ft 10kts
19-Feb-21 21:28 36.081494 -115.169483 266 2168ft 8kts
19-Feb-21 21:29 36.080783 -115.171009 159 2173ft 7kts
19-Feb-21 21:30 36.080718 -115.170618 24 2172ft 0kts

Navigation Log

Ident Type
Flight plan parsing failed, navigation log unavailable